sensor_id;sensor_type;location;lat;lon;timestamp;P1;durP1;ratioP1;P2;durP2;ratioP2
27223;SDS011;14965;50.660;13.226;2022-07-21T00:01:18;6.70;;;2.50;;
27223;SDS011;14965;50.660;13.226;2022-07-21T00:03:44;6.45;;;2.72;;
27223;SDS011;14965;50.660;13.226;2022-07-21T00:06:09;4.35;;;2.40;;
27223;SDS011;14965;50.660;13.226;2022-07-21T00:08:36;7.80;;;2.67;;
27223;SDS011;14965;50.660;13.226;2022-07-21T00:11:03;11.63;;;2.63;;
27223;SDS011;14965;50.660;13.226;2022-07-21T00:13:29;8.00;;;2.60;;
27223;SDS011;14965;50.660;13.226;2022-07-21T00:15:55;5.68;;;2.70;;
27223;SDS011;14965;50.660;13.226;2022-07-21T00:18:21;7.80;;;2.63;;
27223;SDS011;14965;50.660;13.226;2022-07-21T00:20:47;5.45;;;2.50;;
27223;SDS011;14965;50.660;13.226;2022-07-21T00:23:13;8.73;;;2.80;;
27223;SDS011;14965;50.660;13.226;2022-07-21T00:25:39;8.07;;;2.70;;
27223;SDS011;14965;50.660;13.226;2022-07-21T00:28:07;4.82;;;2.47;;
27223;SDS011;14965;50.660;13.226;2022-07-21T00:30:33;7.80;;;2.55;;
27223;SDS011;14965;50.660;13.226;2022-07-21T00:32:59;6.88;;;2.80;;
27223;SDS011;14965;50.660;13.226;2022-07-21T00:35:26;6.38;;;2.60;;
27223;SDS011;14965;50.660;13.226;2022-07-21T00:37:52;5.90;;;2.35;;
27223;SDS011;14965;50.660;13.226;2022-07-21T00:40:18;7.53;;;2.63;;
27223;SDS011;14965;50.660;13.226;2022-07-21T00:42:44;8.35;;;2.63;;
27223;SDS011;14965;50.660;13.226;2022-07-21T00:45:11;5.60;;;2.55;;
27223;SDS011;14965;50.660;13.226;2022-07-21T00:47:38;9.63;;;2.40;;
27223;SDS011;14965;50.660;13.226;2022-07-21T00:50:05;6.20;;;2.70;;
27223;SDS011;14965;50.660;13.226;2022-07-21T00:52:34;5.70;;;2.30;;
27223;SDS011;14965;50.660;13.226;2022-07-21T00:55:00;8.40;;;2.50;;
27223;SDS011;14965;50.660;13.226;2022-07-21T00:57:26;7.20;;;2.20;;
27223;SDS011;14965;50.660;13.226;2022-07-21T00:59:52;7.57;;;2.80;;
27223;SDS011;14965;50.660;13.226;2022-07-21T01:02:19;11.73;;;2.88;;
27223;SDS011;14965;50.660;13.226;2022-07-21T01:04:45;7.65;;;2.88;;
27223;SDS011;14965;50.660;13.226;2022-07-21T01:07:11;11.07;;;2.60;;
27223;SDS011;14965;50.660;13.226;2022-07-21T01:09:38;6.70;;;2.50;;
27223;SDS011;14965;50.660;13.226;2022-07-21T01:12:04;8.95;;;2.60;;
27223;SDS011;14965;50.660;13.226;2022-07-21T01:14:32;5.70;;;3.00;;
27223;SDS011;14965;50.660;13.226;2022-07-21T01:16:58;8.82;;;3.00;;
27223;SDS011;14965;50.660;13.226;2022-07-21T01:19:28;10.05;;;2.80;;
27223;SDS011;14965;50.660;13.226;2022-07-21T01:21:56;7.90;;;2.60;;
27223;SDS011;14965;50.660;13.226;2022-07-21T01:24:22;6.55;;;2.70;;
27223;SDS011;14965;50.660;13.226;2022-07-21T01:26:49;6.75;;;3.10;;
27223;SDS011;14965;50.660;13.226;2022-07-21T01:31:45;6.80;;;2.90;;
27223;SDS011;14965;50.660;13.226;2022-07-21T01:34:12;7.95;;;3.15;;
27223;SDS011;14965;50.660;13.226;2022-07-21T01:36:39;13.77;;;3.58;;
27223;SDS011;14965;50.660;13.226;2022-07-21T01:39:06;8.63;;;3.67;;
27223;SDS011;14965;50.660;13.226;2022-07-21T01:41:33;8.93;;;3.80;;
27223;SDS011;14965;50.660;13.226;2022-07-21T01:43:59;13.20;;;4.20;;
27223;SDS011;14965;50.660;13.226;2022-07-21T01:46:29;16.13;;;4.25;;
27223;SDS011;14965;50.660;13.226;2022-07-21T01:49:02;11.48;;;4.45;;
27223;SDS011;14965;50.660;13.226;2022-07-21T01:51:28;16.60;;;5.00;;
27223;SDS011;14965;50.660;13.226;2022-07-21T01:53:55;10.20;;;5.07;;
27223;SDS011;14965;50.660;13.226;2022-07-21T01:56:22;14.95;;;5.50;;
27223;SDS011;14965;50.660;13.226;2022-07-21T01:58:50;8.88;;;5.32;;
27223;SDS011;14965;50.660;13.226;2022-07-21T02:01:19;15.07;;;5.85;;
27223;SDS011;14965;50.660;13.226;2022-07-21T02:03:48;12.60;;;5.90;;
27223;SDS011;14965;50.660;13.226;2022-07-21T02:06:14;13.95;;;6.32;;
27223;SDS011;14965;50.660;13.226;2022-07-21T02:08:41;14.50;;;6.75;;
27223;SDS011;14965;50.660;13.226;2022-07-21T02:11:08;17.77;;;7.05;;
27223;SDS011;14965;50.660;13.226;2022-07-21T02:13:36;17.20;;;8.07;;
27223;SDS011;14965;50.660;13.226;2022-07-21T02:16:02;21.70;;;7.68;;
27223;SDS011;14965;50.660;13.226;2022-07-21T02:18:29;15.77;;;7.90;;
27223;SDS011;14965;50.660;13.226;2022-07-21T02:20:55;18.25;;;8.57;;
27223;SDS011;14965;50.660;13.226;2022-07-21T02:23:21;13.98;;;8.63;;
27223;SDS011;14965;50.660;13.226;2022-07-21T02:25:49;17.15;;;9.73;;
27223;SDS011;14965;50.660;13.226;2022-07-21T02:28:15;21.92;;;9.13;;
27223;SDS011;14965;50.660;13.226;2022-07-21T02:30:42;18.40;;;9.75;;
27223;SDS011;14965;50.660;13.226;2022-07-21T02:33:08;19.33;;;9.30;;
27223;SDS011;14965;50.660;13.226;2022-07-21T02:35:34;18.15;;;9.77;;
27223;SDS011;14965;50.660;13.226;2022-07-21T02:38:00;20.55;;;10.57;;
27223;SDS011;14965;50.660;13.226;2022-07-21T02:40:26;22.88;;;10.65;;
27223;SDS011;14965;50.660;13.226;2022-07-21T02:42:53;18.25;;;9.93;;
27223;SDS011;14965;50.660;13.226;2022-07-21T02:45:20;20.67;;;10.38;;
27223;SDS011;14965;50.660;13.226;2022-07-21T02:47:48;23.65;;;11.05;;
27223;SDS011;14965;50.660;13.226;2022-07-21T02:50:19;22.95;;;11.05;;
27223;SDS011;14965;50.660;13.226;2022-07-21T02:52:47;17.33;;;10.40;;
27223;SDS011;14965;50.660;13.226;2022-07-21T02:55:13;19.10;;;10.35;;
27223;SDS011;14965;50.660;13.226;2022-07-21T02:57:40;22.98;;;12.05;;
27223;SDS011;14965;50.660;13.226;2022-07-21T03:00:07;20.00;;;11.70;;
27223;SDS011;14965;50.660;13.226;2022-07-21T03:02:35;25.35;;;12.00;;
27223;SDS011;14965;50.660;13.226;2022-07-21T03:05:03;17.48;;;11.07;;
27223;SDS011;14965;50.660;13.226;2022-07-21T03:07:30;19.58;;;11.85;;
27223;SDS011;14965;50.660;13.226;2022-07-21T03:09:56;19.00;;;11.95;;
27223;SDS011;14965;50.660;13.226;2022-07-21T03:12:21;20.83;;;11.70;;
27223;SDS011;14965;50.660;13.226;2022-07-21T03:14:47;17.40;;;11.40;;
27223;SDS011;14965;50.660;13.226;2022-07-21T03:17:13;23.08;;;11.77;;
27223;SDS011;14965;50.660;13.226;2022-07-21T03:19:39;24.15;;;11.07;;
27223;SDS011;14965;50.660;13.226;2022-07-21T03:22:08;17.73;;;11.65;;
27223;SDS011;14965;50.660;13.226;2022-07-21T03:24:34;24.45;;;12.93;;
27223;SDS011;14965;50.660;13.226;2022-07-21T03:27:00;25.58;;;12.73;;
27223;SDS011;14965;50.660;13.226;2022-07-21T03:29:26;30.98;;;13.90;;
27223;SDS011;14965;50.660;13.226;2022-07-21T03:31:51;21.48;;;12.50;;
27223;SDS011;14965;50.660;13.226;2022-07-21T03:34:17;22.38;;;12.85;;
27223;SDS011;14965;50.660;13.226;2022-07-21T03:36:43;23.00;;;13.07;;
27223;SDS011;14965;50.660;13.226;2022-07-21T03:39:10;25.83;;;13.48;;
27223;SDS011;14965;50.660;13.226;2022-07-21T03:41:36;23.38;;;13.55;;
27223;SDS011;14965;50.660;13.226;2022-07-21T03:44:02;26.88;;;14.38;;
27223;SDS011;14965;50.660;13.226;2022-07-21T03:46:28;27.95;;;15.18;;
27223;SDS011;14965;50.660;13.226;2022-07-21T03:48:54;23.15;;;14.00;;
27223;SDS011;14965;50.660;13.226;2022-07-21T03:51:20;27.50;;;14.50;;
27223;SDS011;14965;50.660;13.226;2022-07-21T03:53:46;23.40;;;14.23;;
27223;SDS011;14965;50.660;13.226;2022-07-21T03:56:13;23.67;;;14.80;;
27223;SDS011;14965;50.660;13.226;2022-07-21T03:58:39;26.98;;;15.20;;
27223;SDS011;14965;50.660;13.226;2022-07-21T04:01:04;30.83;;;14.15;;
27223;SDS011;14965;50.660;13.226;2022-07-21T04:03:30;24.27;;;14.88;;
27223;SDS011;14965;50.660;13.226;2022-07-21T04:05:56;25.58;;;14.40;;
27223;SDS011;14965;50.660;13.226;2022-07-21T04:08:22;29.42;;;14.07;;
27223;SDS011;14965;50.660;13.226;2022-07-21T04:10:48;22.70;;;14.20;;
27223;SDS011;14965;50.660;13.226;2022-07-21T04:13:15;24.13;;;14.93;;
27223;SDS011;14965;50.660;13.226;2022-07-21T04:15:41;27.55;;;14.60;;
27223;SDS011;14965;50.660;13.226;2022-07-21T04:18:07;25.98;;;15.02;;
27223;SDS011;14965;50.660;13.226;2022-07-21T04:20:33;32.97;;;16.48;;
27223;SDS011;14965;50.660;13.226;2022-07-21T04:22:59;32.13;;;15.90;;
27223;SDS011;14965;50.660;13.226;2022-07-21T04:25:25;24.17;;;15.70;;
27223;SDS011;14965;50.660;13.226;2022-07-21T04:27:52;31.02;;;16.77;;
27223;SDS011;14965;50.660;13.226;2022-07-21T04:30:22;28.02;;;15.52;;
27223;SDS011;14965;50.660;13.226;2022-07-21T04:32:48;27.42;;;16.25;;
27223;SDS011;14965;50.660;13.226;2022-07-21T04:35:15;23.73;;;15.35;;
27223;SDS011;14965;50.660;13.226;2022-07-21T04:37:42;26.65;;;15.77;;
27223;SDS011;14965;50.660;13.226;2022-07-21T04:40:09;33.00;;;15.70;;
27223;SDS011;14965;50.660;13.226;2022-07-21T04:42:37;25.92;;;14.93;;
27223;SDS011;14965;50.660;13.226;2022-07-21T04:45:05;26.10;;;15.15;;
27223;SDS011;14965;50.660;13.226;2022-07-21T04:47:34;36.40;;;15.88;;
27223;SDS011;14965;50.660;13.226;2022-07-21T04:50:08;31.98;;;15.35;;
27223;SDS011;14965;50.660;13.226;2022-07-21T04:52:34;26.05;;;14.75;;
27223;SDS011;14965;50.660;13.226;2022-07-21T04:55:00;29.08;;;14.82;;
27223;SDS011;14965;50.660;13.226;2022-07-21T04:57:26;21.65;;;14.70;;
27223;SDS011;14965;50.660;13.226;2022-07-21T04:59:55;26.27;;;14.45;;
27223;SDS011;14965;50.660;13.226;2022-07-21T05:02:21;27.20;;;13.98;;
27223;SDS011;14965;50.660;13.226;2022-07-21T05:04:48;20.65;;;14.25;;
27223;SDS011;14965;50.660;13.226;2022-07-21T05:07:14;22.77;;;14.13;;
27223;SDS011;14965;50.660;13.226;2022-07-21T05:09:40;23.52;;;14.35;;
27223;SDS011;14965;50.660;13.226;2022-07-21T05:12:06;23.23;;;13.63;;
27223;SDS011;14965;50.660;13.226;2022-07-21T05:14:37;19.58;;;13.93;;
27223;SDS011;14965;50.660;13.226;2022-07-21T05:17:02;22.98;;;14.20;;
27223;SDS011;14965;50.660;13.226;2022-07-21T05:19:28;19.38;;;14.85;;
27223;SDS011;14965;50.660;13.226;2022-07-21T05:21:56;21.77;;;14.00;;
27223;SDS011;14965;50.660;13.226;2022-07-21T05:24:21;22.10;;;13.60;;
27223;SDS011;14965;50.660;13.226;2022-07-21T05:26:47;19.83;;;13.27;;
27223;SDS011;14965;50.660;13.226;2022-07-21T05:29:13;20.17;;;12.23;;
27223;SDS011;14965;50.660;13.226;2022-07-21T05:31:39;23.40;;;11.23;;
27223;SDS011;14965;50.660;13.226;2022-07-21T05:34:05;17.17;;;10.00;;
27223;SDS011;14965;50.660;13.226;2022-07-21T05:36:31;18.83;;;9.93;;
27223;SDS011;14965;50.660;13.226;2022-07-21T05:38:58;18.60;;;9.48;;
27223;SDS011;14965;50.660;13.226;2022-07-21T05:41:24;16.30;;;9.80;;
27223;SDS011;14965;50.660;13.226;2022-07-21T05:43:50;14.77;;;9.10;;
27223;SDS011;14965;50.660;13.226;2022-07-21T05:46:16;13.82;;;8.27;;
27223;SDS011;14965;50.660;13.226;2022-07-21T05:48:42;12.30;;;8.50;;
27223;SDS011;14965;50.660;13.226;2022-07-21T05:51:07;12.07;;;7.90;;
27223;SDS011;14965;50.660;13.226;2022-07-21T05:53:33;19.67;;;8.13;;
27223;SDS011;14965;50.660;13.226;2022-07-21T05:56:00;17.77;;;8.02;;
27223;SDS011;14965;50.660;13.226;2022-07-21T05:58:26;13.07;;;7.68;;
27223;SDS011;14965;50.660;13.226;2022-07-21T06:00:52;9.88;;;7.00;;
27223;SDS011;14965;50.660;13.226;2022-07-21T06:03:19;12.65;;;7.32;;
27223;SDS011;14965;50.660;13.226;2022-07-21T06:05:44;12.52;;;7.53;;
27223;SDS011;14965;50.660;13.226;2022-07-21T06:08:10;12.75;;;7.35;;
27223;SDS011;14965;50.660;13.226;2022-07-21T06:10:36;10.98;;;7.97;;
27223;SDS011;14965;50.660;13.226;2022-07-21T06:13:03;14.02;;;8.02;;
27223;SDS011;14965;50.660;13.226;2022-07-21T06:15:29;13.57;;;7.93;;
27223;SDS011;14965;50.660;13.226;2022-07-21T06:17:55;13.65;;;7.70;;
27223;SDS011;14965;50.660;13.226;2022-07-21T06:20:21;13.63;;;8.98;;
27223;SDS011;14965;50.660;13.226;2022-07-21T06:22:47;10.35;;;7.95;;
27223;SDS011;14965;50.660;13.226;2022-07-21T06:25:12;14.80;;;8.52;;
27223;SDS011;14965;50.660;13.226;2022-07-21T06:27:38;14.40;;;8.40;;
27223;SDS011;14965;50.660;13.226;2022-07-21T06:30:07;12.18;;;8.20;;
27223;SDS011;14965;50.660;13.226;2022-07-21T06:32:34;14.02;;;8.00;;
27223;SDS011;14965;50.660;13.226;2022-07-21T06:35:00;12.48;;;8.50;;
27223;SDS011;14965;50.660;13.226;2022-07-21T06:37:26;14.90;;;8.60;;
27223;SDS011;14965;50.660;13.226;2022-07-21T06:39:52;15.10;;;7.90;;
27223;SDS011;14965;50.660;13.226;2022-07-21T06:42:18;16.02;;;8.70;;
27223;SDS011;14965;50.660;13.226;2022-07-21T06:44:44;16.02;;;9.15;;
27223;SDS011;14965;50.660;13.226;2022-07-21T06:47:11;14.93;;;8.80;;
27223;SDS011;14965;50.660;13.226;2022-07-21T06:49:37;16.90;;;9.75;;
27223;SDS011;14965;50.660;13.226;2022-07-21T06:52:03;16.73;;;9.65;;
27223;SDS011;14965;50.660;13.226;2022-07-21T06:54:29;17.83;;;10.07;;
27223;SDS011;14965;50.660;13.226;2022-07-21T06:56:55;16.92;;;10.00;;
27223;SDS011;14965;50.660;13.226;2022-07-21T06:59:21;16.60;;;10.20;;
27223;SDS011;14965;50.660;13.226;2022-07-21T07:01:47;17.50;;;9.85;;
27223;SDS011;14965;50.660;13.226;2022-07-21T07:04:14;16.63;;;10.30;;
27223;SDS011;14965;50.660;13.226;2022-07-21T07:06:40;17.88;;;9.45;;
27223;SDS011;14965;50.660;13.226;2022-07-21T07:09:12;16.92;;;11.30;;
27223;SDS011;14965;50.660;13.226;2022-07-21T07:11:38;17.55;;;11.30;;
27223;SDS011;14965;50.660;13.226;2022-07-21T07:14:04;18.33;;;11.57;;
27223;SDS011;14965;50.660;13.226;2022-07-21T07:16:29;17.83;;;11.68;;
27223;SDS011;14965;50.660;13.226;2022-07-21T07:18:55;18.83;;;11.23;;
27223;SDS011;14965;50.660;13.226;2022-07-21T07:21:22;17.20;;;10.38;;
27223;SDS011;14965;50.660;13.226;2022-07-21T07:23:48;18.17;;;10.32;;
27223;SDS011;14965;50.660;13.226;2022-07-21T07:26:14;16.15;;;10.32;;
27223;SDS011;14965;50.660;13.226;2022-07-21T07:28:40;16.45;;;10.32;;
27223;SDS011;14965;50.660;13.226;2022-07-21T07:31:06;16.08;;;11.30;;
27223;SDS011;14965;50.660;13.226;2022-07-21T07:33:32;16.17;;;10.45;;
27223;SDS011;14965;50.660;13.226;2022-07-21T07:35:58;17.25;;;10.38;;
27223;SDS011;14965;50.660;13.226;2022-07-21T07:38:25;11.95;;;9.45;;
27223;SDS011;14965;50.660;13.226;2022-07-21T07:40:51;14.77;;;9.20;;
27223;SDS011;14965;50.660;13.226;2022-07-21T07:43:17;13.82;;;8.55;;
27223;SDS011;14965;50.660;13.226;2022-07-21T07:45:43;15.07;;;8.23;;
27223;SDS011;14965;50.660;13.226;2022-07-21T07:48:09;11.02;;;7.18;;
27223;SDS011;14965;50.660;13.226;2022-07-21T07:50:34;11.40;;;7.60;;
27223;SDS011;14965;50.660;13.226;2022-07-21T07:53:00;8.02;;;6.80;;
27223;SDS011;14965;50.660;13.226;2022-07-21T07:55:28;11.48;;;7.13;;
27223;SDS011;14965;50.660;13.226;2022-07-21T07:57:54;11.68;;;6.65;;
27223;SDS011;14965;50.660;13.226;2022-07-21T08:00:20;8.60;;;6.00;;
27223;SDS011;14965;50.660;13.226;2022-07-21T08:02:46;7.88;;;6.30;;
27223;SDS011;14965;50.660;13.226;2022-07-21T08:05:12;9.70;;;6.38;;
27223;SDS011;14965;50.660;13.226;2022-07-21T08:07:39;8.57;;;5.60;;
27223;SDS011;14965;50.660;13.226;2022-07-21T08:10:05;8.18;;;5.68;;
27223;SDS011;14965;50.660;13.226;2022-07-21T08:12:33;9.98;;;5.95;;
27223;SDS011;14965;50.660;13.226;2022-07-21T08:15:00;8.05;;;5.30;;
27223;SDS011;14965;50.660;13.226;2022-07-21T08:17:26;10.07;;;5.45;;
27223;SDS011;14965;50.660;13.226;2022-07-21T08:19:52;7.95;;;5.13;;
27223;SDS011;14965;50.660;13.226;2022-07-21T08:22:18;7.82;;;5.35;;
27223;SDS011;14965;50.660;13.226;2022-07-21T08:24:43;7.28;;;4.95;;
27223;SDS011;14965;50.660;13.226;2022-07-21T08:27:09;8.93;;;4.70;;
27223;SDS011;14965;50.660;13.226;2022-07-21T08:29:36;6.15;;;5.03;;
27223;SDS011;14965;50.660;13.226;2022-07-21T08:32:03;8.40;;;4.65;;
27223;SDS011;14965;50.660;13.226;2022-07-21T08:34:29;9.63;;;4.82;;
27223;SDS011;14965;50.660;13.226;2022-07-21T08:36:55;7.82;;;5.18;;
27223;SDS011;14965;50.660;13.226;2022-07-21T08:39:21;10.27;;;4.97;;
27223;SDS011;14965;50.660;13.226;2022-07-21T08:41:47;7.28;;;4.88;;
27223;SDS011;14965;50.660;13.226;2022-07-21T08:44:14;7.30;;;5.10;;
27223;SDS011;14965;50.660;13.226;2022-07-21T08:46:41;8.70;;;5.70;;
27223;SDS011;14965;50.660;13.226;2022-07-21T08:49:08;7.20;;;4.80;;
27223;SDS011;14965;50.660;13.226;2022-07-21T08:51:35;8.93;;;4.25;;
27223;SDS011;14965;50.660;13.226;2022-07-21T08:54:02;9.20;;;4.47;;
27223;SDS011;14965;50.660;13.226;2022-07-21T08:56:29;6.57;;;4.45;;
27223;SDS011;14965;50.660;13.226;2022-07-21T08:58:55;6.25;;;4.32;;
27223;SDS011;14965;50.660;13.226;2022-07-21T09:01:21;5.88;;;4.35;;
27223;SDS011;14965;50.660;13.226;2022-07-21T09:03:49;6.18;;;4.65;;
27223;SDS011;14965;50.660;13.226;2022-07-21T09:06:16;7.30;;;4.18;;
27223;SDS011;14965;50.660;13.226;2022-07-21T09:08:42;5.10;;;4.18;;
27223;SDS011;14965;50.660;13.226;2022-07-21T09:11:11;4.68;;;3.80;;
27223;SDS011;14965;50.660;13.226;2022-07-21T09:13:44;5.90;;;3.90;;
27223;SDS011;14965;50.660;13.226;2022-07-21T09:16:12;5.40;;;3.72;;
27223;SDS011;14965;50.660;13.226;2022-07-21T09:18:46;5.70;;;3.83;;
27223;SDS011;14965;50.660;13.226;2022-07-21T09:21:16;4.65;;;3.90;;
27223;SDS011;14965;50.660;13.226;2022-07-21T09:23:43;5.25;;;4.03;;
27223;SDS011;14965;50.660;13.226;2022-07-21T09:26:10;4.00;;;3.60;;
27223;SDS011;14965;50.660;13.226;2022-07-21T09:28:36;4.22;;;3.72;;
27223;SDS011;14965;50.660;13.226;2022-07-21T09:31:03;6.03;;;3.70;;
27223;SDS011;14965;50.660;13.226;2022-07-21T09:33:32;12.80;;;4.57;;
27223;SDS011;14965;50.660;13.226;2022-07-21T09:36:03;7.07;;;4.10;;
27223;SDS011;14965;50.660;13.226;2022-07-21T09:38:33;5.50;;;4.05;;
27223;SDS011;14965;50.660;13.226;2022-07-21T09:41:05;5.93;;;3.85;;
27223;SDS011;14965;50.660;13.226;2022-07-21T09:43:35;5.88;;;4.40;;
27223;SDS011;14965;50.660;13.226;2022-07-21T09:46:04;6.13;;;4.43;;
27223;SDS011;14965;50.660;13.226;2022-07-21T09:48:31;6.22;;;4.10;;
27223;SDS011;14965;50.660;13.226;2022-07-21T09:54:01;6.32;;;4.32;;
27223;SDS011;14965;50.660;13.226;2022-07-21T09:56:32;6.40;;;4.55;;
27223;SDS011;14965;50.660;13.226;2022-07-21T09:59:01;6.53;;;4.13;;
27223;SDS011;14965;50.660;13.226;2022-07-21T10:03:56;5.70;;;4.30;;
27223;SDS011;14965;50.660;13.226;2022-07-21T10:06:25;8.35;;;4.70;;
27223;SDS011;14965;50.660;13.226;2022-07-21T10:08:55;6.43;;;4.88;;
27223;SDS011;14965;50.660;13.226;2022-07-21T10:11:22;8.13;;;4.63;;
27223;SDS011;14965;50.660;13.226;2022-07-21T10:13:49;5.70;;;4.68;;
27223;SDS011;14965;50.660;13.226;2022-07-21T10:16:15;6.78;;;4.53;;
27223;SDS011;14965;50.660;13.226;2022-07-21T10:18:52;6.93;;;5.03;;
27223;SDS011;14965;50.660;13.226;2022-07-21T10:21:28;9.45;;;5.68;;
27223;SDS011;14965;50.660;13.226;2022-07-21T10:24:05;9.65;;;5.85;;
27223;SDS011;14965;50.660;13.226;2022-07-21T10:26:36;7.10;;;5.78;;
27223;SDS011;14965;50.660;13.226;2022-07-21T10:29:02;11.23;;;6.55;;
27223;SDS011;14965;50.660;13.226;2022-07-21T10:31:28;7.43;;;6.63;;
27223;SDS011;14965;50.660;13.226;2022-07-21T10:33:55;9.90;;;6.07;;
27223;SDS011;14965;50.660;13.226;2022-07-21T10:36:42;11.38;;;6.40;;
27223;SDS011;14965;50.660;13.226;2022-07-21T10:39:15;13.10;;;6.85;;
27223;SDS011;14965;50.660;13.226;2022-07-21T10:41:46;9.70;;;6.63;;
27223;SDS011;14965;50.660;13.226;2022-07-21T10:44:37;9.93;;;7.25;;
27223;SDS011;14965;50.660;13.226;2022-07-21T10:47:12;9.00;;;6.80;;
27223;SDS011;14965;50.660;13.226;2022-07-21T10:49:42;9.75;;;6.93;;
27223;SDS011;14965;50.660;13.226;2022-07-21T10:55:28;11.20;;;7.20;;
27223;SDS011;14965;50.660;13.226;2022-07-21T10:58:14;11.35;;;7.45;;
27223;SDS011;14965;50.660;13.226;2022-07-21T11:00:48;10.73;;;7.47;;
27223;SDS011;14965;50.660;13.226;2022-07-21T11:03:17;10.80;;;7.20;;
27223;SDS011;14965;50.660;13.226;2022-07-21T11:06:14;12.90;;;8.20;;
27223;SDS011;14965;50.660;13.226;2022-07-21T11:08:44;10.70;;;7.85;;
27223;SDS011;14965;50.660;13.226;2022-07-21T11:11:14;10.48;;;7.70;;
27223;SDS011;14965;50.660;13.226;2022-07-21T11:13:58;10.15;;;7.53;;
27223;SDS011;14965;50.660;13.226;2022-07-21T11:19:39;10.35;;;8.20;;
27223;SDS011;14965;50.660;13.226;2022-07-21T11:22:12;9.48;;;8.32;;
27223;SDS011;14965;50.660;13.226;2022-07-21T11:24:46;11.15;;;8.05;;
27223;SDS011;14965;50.660;13.226;2022-07-21T11:27:18;9.88;;;8.63;;
27223;SDS011;14965;50.660;13.226;2022-07-21T11:29:50;12.05;;;8.43;;
27223;SDS011;14965;50.660;13.226;2022-07-21T11:32:20;11.15;;;7.75;;
27223;SDS011;14965;50.660;13.226;2022-07-21T11:34:47;9.50;;;8.35;;
27223;SDS011;14965;50.660;13.226;2022-07-21T11:37:18;9.75;;;8.05;;
27223;SDS011;14965;50.660;13.226;2022-07-21T11:40:06;8.50;;;7.60;;
27223;SDS011;14965;50.660;13.226;2022-07-21T11:42:37;12.35;;;7.93;;
27223;SDS011;14965;50.660;13.226;2022-07-21T11:45:04;12.93;;;7.18;;
27223;SDS011;14965;50.660;13.226;2022-07-21T11:47:32;10.20;;;7.30;;
27223;SDS011;14965;50.660;13.226;2022-07-21T11:50:00;8.80;;;7.07;;
27223;SDS011;14965;50.660;13.226;2022-07-21T11:52:30;10.10;;;7.25;;
27223;SDS011;14965;50.660;13.226;2022-07-21T11:54:59;9.10;;;6.40;;
27223;SDS011;14965;50.660;13.226;2022-07-21T11:57:28;9.95;;;7.00;;
27223;SDS011;14965;50.660;13.226;2022-07-21T11:59:56;10.43;;;6.47;;
27223;SDS011;14965;50.660;13.226;2022-07-21T12:02:24;8.00;;;5.60;;
27223;SDS011;14965;50.660;13.226;2022-07-21T12:04:53;7.43;;;6.05;;
27223;SDS011;14965;50.660;13.226;2022-07-21T12:07:21;10.77;;;6.57;;
27223;SDS011;14965;50.660;13.226;2022-07-21T12:09:51;8.02;;;5.97;;
27223;SDS011;14965;50.660;13.226;2022-07-21T12:12:29;7.45;;;5.70;;
27223;SDS011;14965;50.660;13.226;2022-07-21T12:17:41;6.18;;;5.57;;
27223;SDS011;14965;50.660;13.226;2022-07-21T12:20:10;7.15;;;6.38;;
27223;SDS011;14965;50.660;13.226;2022-07-21T12:22:39;7.10;;;6.15;;
27223;SDS011;14965;50.660;13.226;2022-07-21T12:25:07;8.60;;;6.13;;
27223;SDS011;14965;50.660;13.226;2022-07-21T12:27:34;7.57;;;6.13;;
27223;SDS011;14965;50.660;13.226;2022-07-21T12:30:02;7.45;;;6.30;;
27223;SDS011;14965;50.660;13.226;2022-07-21T12:32:42;9.45;;;6.40;;
27223;SDS011;14965;50.660;13.226;2022-07-21T12:35:18;9.65;;;6.18;;
27223;SDS011;14965;50.660;13.226;2022-07-21T12:37:51;7.13;;;6.00;;
27223;SDS011;14965;50.660;13.226;2022-07-21T12:40:25;10.07;;;6.30;;
27223;SDS011;14965;50.660;13.226;2022-07-21T12:43:02;6.78;;;6.07;;
27223;SDS011;14965;50.660;13.226;2022-07-21T12:45:46;8.15;;;6.53;;
27223;SDS011;14965;50.660;13.226;2022-07-21T12:48:24;11.18;;;6.85;;
27223;SDS011;14965;50.660;13.226;2022-07-21T12:50:59;9.40;;;6.63;;
27223;SDS011;14965;50.660;13.226;2022-07-21T12:53:31;10.70;;;7.03;;
27223;SDS011;14965;50.660;13.226;2022-07-21T12:56:00;9.68;;;6.93;;
27223;SDS011;14965;50.660;13.226;2022-07-21T12:58:27;9.48;;;7.05;;
27223;SDS011;14965;50.660;13.226;2022-07-21T13:00:54;9.90;;;6.95;;
27223;SDS011;14965;50.660;13.226;2022-07-21T13:03:20;8.32;;;7.03;;
27223;SDS011;14965;50.660;13.226;2022-07-21T13:05:47;9.63;;;7.25;;
27223;SDS011;14965;50.660;13.226;2022-07-21T13:08:13;11.40;;;7.80;;
27223;SDS011;14965;50.660;13.226;2022-07-21T13:10:39;10.77;;;7.70;;
27223;SDS011;14965;50.660;13.226;2022-07-21T13:13:05;12.25;;;8.15;;
27223;SDS011;14965;50.660;13.226;2022-07-21T13:15:31;10.75;;;7.72;;
27223;SDS011;14965;50.660;13.226;2022-07-21T13:17:57;8.48;;;7.18;;
27223;SDS011;14965;50.660;13.226;2022-07-21T13:20:23;8.70;;;7.68;;
27223;SDS011;14965;50.660;13.226;2022-07-21T13:22:53;9.35;;;8.20;;
27223;SDS011;14965;50.660;13.226;2022-07-21T13:25:19;11.45;;;7.95;;
27223;SDS011;14965;50.660;13.226;2022-07-21T13:27:45;10.23;;;8.32;;
27223;SDS011;14965;50.660;13.226;2022-07-21T13:30:11;11.63;;;8.27;;
27223;SDS011;14965;50.660;13.226;2022-07-21T13:32:37;10.32;;;8.18;;
27223;SDS011;14965;50.660;13.226;2022-07-21T13:35:03;12.80;;;8.05;;
27223;SDS011;14965;50.660;13.226;2022-07-21T13:37:31;11.60;;;7.93;;
27223;SDS011;14965;50.660;13.226;2022-07-21T13:39:58;19.90;;;9.63;;
27223;SDS011;14965;50.660;13.226;2022-07-21T13:42:24;13.27;;;8.45;;
27223;SDS011;14965;50.660;13.226;2022-07-21T13:44:50;11.70;;;8.77;;
27223;SDS011;14965;50.660;13.226;2022-07-21T13:47:16;14.18;;;9.23;;
27223;SDS011;14965;50.660;13.226;2022-07-21T13:49:42;12.30;;;8.30;;
27223;SDS011;14965;50.660;13.226;2022-07-21T13:52:08;10.90;;;8.63;;
27223;SDS011;14965;50.660;13.226;2022-07-21T13:54:34;13.70;;;9.18;;
27223;SDS011;14965;50.660;13.226;2022-07-21T13:57:01;12.02;;;9.98;;
27223;SDS011;14965;50.660;13.226;2022-07-21T13:59:28;12.35;;;9.65;;
27223;SDS011;14965;50.660;13.226;2022-07-21T14:01:54;14.07;;;9.80;;
27223;SDS011;14965;50.660;13.226;2022-07-21T14:04:19;11.35;;;9.68;;
27223;SDS011;14965;50.660;13.226;2022-07-21T14:06:45;15.30;;;10.25;;
27223;SDS011;14965;50.660;13.226;2022-07-21T14:09:11;12.65;;;9.73;;
27223;SDS011;14965;50.660;13.226;2022-07-21T14:11:37;12.23;;;9.30;;
27223;SDS011;14965;50.660;13.226;2022-07-21T14:14:05;10.40;;;9.23;;
27223;SDS011;14965;50.660;13.226;2022-07-21T14:16:31;13.30;;;9.88;;
27223;SDS011;14965;50.660;13.226;2022-07-21T14:18:56;13.57;;;10.23;;
27223;SDS011;14965;50.660;13.226;2022-07-21T14:21:22;12.93;;;10.55;;
27223;SDS011;14965;50.660;13.226;2022-07-21T14:23:48;12.60;;;9.77;;
27223;SDS011;14965;50.660;13.226;2022-07-21T14:26:14;13.88;;;10.40;;
27223;SDS011;14965;50.660;13.226;2022-07-21T14:28:40;14.25;;;10.63;;
27223;SDS011;14965;50.660;13.226;2022-07-21T14:31:07;17.55;;;10.82;;
27223;SDS011;14965;50.660;13.226;2022-07-21T14:33:33;12.82;;;10.25;;
27223;SDS011;14965;50.660;13.226;2022-07-21T14:35:59;10.52;;;9.52;;
27223;SDS011;14965;50.660;13.226;2022-07-21T14:38:25;13.30;;;10.15;;
27223;SDS011;14965;50.660;13.226;2022-07-21T14:40:51;12.77;;;9.80;;
27223;SDS011;14965;50.660;13.226;2022-07-21T14:43:17;14.00;;;10.48;;